Time;durP1;ratioP1;P1;durP2;ratioP2;P2;SDS_P1;SDS_P2;PMS_P1;PMS_P2;Temp;Humidity;BMP_temperature;BMP_pressure;BME280_temperature;BME280_humidity;BME280_pressure;Samples;Min_cycle;Max_cycle;Signal;HPM_P1;HPM_P2
2023/09/08 00:01:12;;;;;;;6.80;6.10;;;;;14.20;97554.00;;;;5049959;28;20274;-66
2023/09/08 00:04:04;;;;;;;6.57;5.67;;;;;14.50;97553.00;;;;5044242;28;20200;-66
2023/09/08 00:06:53;;;;;;;9.23;5.00;;;;;14.40;97555.00;;;;5057984;28;20724;-66
2023/09/08 00:09:41;;;;;;;8.23;5.40;;;;;14.50;97551.00;;;;5053543;28;20192;-66
2023/09/08 00:12:31;;;;;;;7.53;6.00;;;;;14.50;97546.00;;;;5057857;28;20342;-66
2023/09/08 00:15:20;;;;;;;7.33;5.63;;;;;14.80;97553.00;;;;5046589;28;20240;-66
2023/09/08 00:18:09;;;;;;;8.03;5.63;;;;;15.00;97553.00;;;;5047058;28;20204;-66
2023/09/08 00:20:59;;;;;;;7.67;5.70;;;;;15.00;97551.00;;;;5056102;28;20203;-66
2023/09/08 00:23:48;;;;;;;6.97;5.43;;;;;14.70;97545.00;;;;5047436;28;20314;-66
2023/09/08 00:26:37;;;;;;;5.60;4.80;;;;;14.20;97540.00;;;;5057749;28;20573;-66
2023/09/08 00:29:26;;;;;;;8.47;5.30;;;;;14.00;97534.00;;;;5047222;28;20205;-66
2023/09/08 00:32:15;;;;;;;6.30;5.30;;;;;13.90;97531.00;;;;5048347;28;20262;-66
2023/09/08 00:35:06;;;;;;;8.87;5.20;;;;;14.00;97533.00;;;;5045816;28;20714;-66
2023/09/08 00:37:57;;;;;;;5.43;4.87;;;;;13.90;97535.00;;;;5049049;28;20204;-66
2023/09/08 00:40:46;;;;;;;7.20;5.60;;;;;13.70;97539.00;;;;5047043;28;20220;-66
2023/09/08 00:43:35;;;;;;;5.63;5.03;;;;;13.90;97531.00;;;;5047288;28;20204;-66
2023/09/08 00:46:25;;;;;;;7.30;6.33;;;;;14.20;97528.00;;;;5045595;28;20239;-65
2023/09/08 00:49:13;;;;;;;8.00;5.53;;;;;14.20;97531.00;;;;5047375;28;20201;-66
2023/09/08 00:52:03;;;;;;;6.50;5.10;;;;;14.10;97521.00;;;;5049956;28;20215;-66
2023/09/08 00:54:53;;;;;;;6.90;5.83;;;;;13.80;97523.00;;;;5054125;28;20227;-66
2023/09/08 00:57:42;;;;;;;8.43;5.73;;;;;13.70;97517.00;;;;5048875;28;20580;-66
2023/09/08 01:00:31;;;;;;;6.13;5.40;;;;;13.30;97517.00;;;;5051608;28;20216;-66
2023/09/08 01:03:21;;;;;;;7.87;5.60;;;;;13.20;97519.00;;;;5054180;28;20687;-66
2023/09/08 01:06:10;;;;;;;8.73;5.40;;;;;13.40;97516.00;;;;5050759;28;20232;-66
2023/09/08 01:08:59;;;;;;;8.43;5.10;;;;;13.60;97511.00;;;;5048128;28;20203;-66
2023/09/08 01:11:49;;;;;;;6.17;5.57;;;;;13.40;97510.00;;;;5046023;28;20200;-66
2023/09/08 01:14:38;;;;;;;8.10;5.70;;;;;13.60;97509.00;;;;5049047;28;20201;-67
2023/09/08 01:17:27;;;;;;;8.10;5.90;;;;;13.90;97512.00;;;;5047166;28;20199;-66
2023/09/08 01:20:21;;;;;;;6.80;5.10;;;;;14.00;97504.00;;;;5048645;28;20227;-66
2023/09/08 01:23:19;;;;;;;8.53;5.43;;;;;14.00;97500.00;;;;5048005;28;20687;-66
2023/09/08 01:26:13;;;;;;;11.97;6.00;;;;;14.10;97511.00;;;;5048635;28;20215;-66
2023/09/08 01:29:03;;;;;;;6.90;5.80;;;;;14.10;97512.00;;;;5048229;28;20185;-66
2023/09/08 01:31:52;;;;;;;6.50;5.60;;;;;14.10;97500.00;;;;5050694;28;20211;-66
2023/09/08 01:34:41;;;;;;;6.83;5.80;;;;;13.60;97494.00;;;;5047547;28;20325;-66
2023/09/08 01:37:30;;;;;;;5.30;4.80;;;;;13.50;97500.00;;;;5050995;28;20204;-66
2023/09/08 01:40:19;;;;;;;9.50;5.30;;;;;13.40;97488.00;;;;5048251;28;20247;-66
2023/09/08 01:43:10;;;;;;;6.23;5.63;;;;;13.30;97490.00;;;;5051709;28;20211;-66
2023/09/08 01:45:59;;;;;;;5.50;4.93;;;;;13.20;97493.00;;;;5055652;28;20965;-66
2023/09/08 01:48:48;;;;;;;5.87;5.13;;;;;13.20;97496.00;;;;5052213;28;20200;-67
2023/09/08 01:51:37;;;;;;;7.00;5.90;;;;;13.10;97490.00;;;;5056238;28;20200;-66
2023/09/08 01:54:26;;;;;;;9.67;6.10;;;;;13.20;97495.00;;;;5051156;28;20204;-66
2023/09/08 01:57:15;;;;;;;10.17;6.00;;;;;13.60;97499.00;;;;5055401;28;20676;-66
2023/09/08 02:00:07;;;;;;;8.83;6.07;;;;;13.80;97498.00;;;;5050878;28;20262;-66
2023/09/08 02:02:56;;;;;;;6.77;5.17;;;;;13.90;97491.00;;;;5045304;28;20211;-67
2023/09/08 02:05:45;;;;;;;7.00;5.73;;;;;13.60;97490.00;;;;5045905;28;20231;-66
2023/09/08 02:08:34;;;;;;;9.30;5.73;;;;;13.20;97489.00;;;;5051737;28;20201;-66
2023/09/08 02:11:23;;;;;;;6.53;5.07;;;;;13.00;97487.00;;;;5052028;28;20694;-66
2023/09/08 02:14:13;;;;;;;6.20;5.60;;;;;13.00;97488.00;;;;5057896;28;20218;-66
2023/09/08 02:17:04;;;;;;;7.40;6.00;;;;;13.10;97492.00;;;;5052759;28;20196;-66
2023/09/08 02:19:53;;;;;;;7.00;5.97;;;;;13.10;97489.00;;;;5049121;28;20236;-67
2023/09/08 02:22:42;;;;;;;8.53;6.33;;;;;13.50;97494.00;;;;5054862;28;20247;-66
2023/09/08 02:25:31;;;;;;;9.73;6.20;;;;;13.60;97483.00;;;;5054645;28;20220;-66
2023/09/08 02:28:20;;;;;;;8.87;6.53;;;;;13.60;97488.00;;;;5057396;28;20208;-66
2023/09/08 02:31:08;;;;;;;9.17;5.33;;;;;13.50;97492.00;;;;5053084;28;20197;-66
2023/09/08 02:33:59;;;;;;;7.00;5.17;;;;;13.20;97495.00;;;;5045994;28;20672;-66
2023/09/08 02:36:50;;;;;;;6.27;5.27;;;;;13.00;97485.00;;;;5056678;28;20212;-66
2023/09/08 02:39:39;;;;;;;6.10;5.47;;;;;12.60;97490.00;;;;5054218;28;20232;-66
2023/09/08 02:42:28;;;;;;;6.10;5.00;;;;;12.90;97485.00;;;;5059397;28;20205;-66
2023/09/08 02:45:17;;;;;;;17.17;6.83;;;;;12.90;97488.00;;;;5059588;28;20224;-66
2023/09/08 02:48:07;;;;;;;10.30;5.40;;;;;12.80;97493.00;;;;5046957;28;20217;-66
2023/09/08 02:50:57;;;;;;;7.93;7.13;;;;;12.60;97485.00;;;;5056474;28;20822;-66
2023/09/08 02:53:46;;;;;;;5.87;4.60;;;;;12.90;97485.00;;;;5047300;28;20197;-67
2023/09/08 02:56:35;;;;;;;7.97;5.63;;;;;13.00;97486.00;;;;5050921;28;20236;-66
2023/09/08 02:59:24;;;;;;;11.10;6.30;;;;;13.10;97485.00;;;;5058473;28;20694;-66
2023/09/08 03:02:13;;;;;;;8.07;6.40;;;;;12.70;97491.00;;;;5060013;28;20200;-66
2023/09/08 03:05:02;;;;;;;8.03;6.13;;;;;12.70;97482.00;;;;5056758;28;20216;-66
2023/09/08 03:07:52;;;;;;;7.67;5.47;;;;;12.80;97487.00;;;;5050584;28;20200;-67
2023/09/08 03:10:42;;;;;;;9.57;6.13;;;;;12.80;97477.00;;;;5049963;28;20208;-66
2023/09/08 03:13:31;;;;;;;9.73;6.23;;;;;12.60;97479.00;;;;5050934;28;20205;-66
2023/09/08 03:16:20;;;;;;;7.83;6.10;;;;;12.70;97480.00;;;;5047722;28;20240;-66
2023/09/08 03:19:09;;;;;;;7.30;5.40;;;;;12.70;97480.00;;;;5057250;28;20219;-66
2023/09/08 03:21:58;;;;;;;9.13;6.63;;;;;12.50;97477.00;;;;5055775;28;20204;-67
2023/09/08 03:24:48;;;;;;;7.13;6.43;;;;;12.60;97470.00;;;;5050120;28;20205;-67
2023/09/08 03:27:37;;;;;;;7.50;6.73;;;;;12.70;97478.00;;;;5052895;28;20208;-67
2023/09/08 03:30:26;;;;;;;7.53;6.57;;;;;12.60;97469.00;;;;5056746;28;20209;-66
2023/09/08 03:33:15;;;;;;;8.23;6.03;;;;;12.50;97468.00;;;;5051474;28;20680;-66
2023/09/08 03:36:05;;;;;;;10.63;4.80;;;;;12.40;97472.00;;;;5050849;28;20229;-66
2023/09/08 03:38:54;;;;;;;7.00;5.93;;;;;12.40;97471.00;;;;5045519;28;20202;-67
2023/09/08 03:41:44;;;;;;;11.00;5.63;;;;;12.20;97467.00;;;;5049710;28;20227;-66
2023/09/08 03:44:33;;;;;;;8.07;6.87;;;;;12.40;97473.00;;;;5050398;28;20197;-67
2023/09/08 03:47:22;;;;;;;7.83;6.03;;;;;12.50;97475.00;;;;5051535;28;20211;-67
2023/09/08 03:50:11;;;;;;;9.90;6.70;;;;;12.60;97471.00;;;;5051151;28;20660;-67
2023/09/08 03:53:00;;;;;;;9.20;6.47;;;;;12.50;97475.00;;;;5047890;28;20220;-66
2023/09/08 03:55:49;;;;;;;7.47;6.57;;;;;12.60;97476.00;;;;5048311;28;20221;-66
2023/09/08 03:58:39;;;;;;;7.63;5.93;;;;;12.60;97477.00;;;;5049178;28;20204;-66
2023/09/08 04:01:28;;;;;;;10.70;6.57;;;;;12.50;97474.00;;;;5048933;28;20227;-66
2023/09/08 04:04:19;;;;;;;7.03;5.50;;;;;12.20;97473.00;;;;5048674;28;20684;-67
2023/09/08 04:07:08;;;;;;;7.80;5.77;;;;;12.00;97479.00;;;;5049637;28;20731;-66
2023/09/08 04:09:57;;;;;;;10.13;6.20;;;;;12.30;97464.00;;;;5049855;28;20215;-66
2023/09/08 04:12:46;;;;;;;8.27;6.80;;;;;12.80;97467.00;;;;5050471;28;20208;-66
2023/09/08 04:15:37;;;;;;;8.37;6.50;;;;;12.80;97480.00;;;;5058656;22;20239;-85
2023/09/08 04:18:26;;;;;;;10.37;6.27;;;;;12.50;97470.00;;;;5067647;28;20211;-85
2023/09/08 04:21:15;;;;;;;8.40;6.40;;;;;12.10;97471.00;;;;5071657;28;20230;-85
2023/09/08 04:24:04;;;;;;;8.47;6.50;;;;;12.40;97470.00;;;;5067031;28;20207;-85
2023/09/08 04:26:54;;;;;;;9.50;5.83;;;;;12.40;97472.00;;;;5064484;28;20592;-84
2023/09/08 04:29:43;;;;;;;7.13;5.47;;;;;12.60;97473.00;;;;5070687;28;20815;-85
2023/09/08 04:32:33;;;;;;;9.20;5.90;;;;;12.70;97479.00;;;;5070651;28;20200;-84
2023/09/08 04:35:22;;;;;;;8.47;5.70;;;;;12.40;97477.00;;;;5069249;28;20676;-85
2023/09/08 04:38:11;;;;;;;13.20;6.23;;;;;12.10;97476.00;;;;5071232;28;20699;-85
2023/09/08 04:41:00;;;;;;;11.63;6.17;;;;;12.10;97478.00;;;;5068612;28;20228;-84
2023/09/08 04:43:49;;;;;;;6.87;5.90;;;;;12.20;97475.00;;;;5063408;28;20581;-85
2023/09/08 04:46:38;;;;;;;7.67;5.77;;;;;12.30;97479.00;;;;5072467;28;20664;-85
2023/09/08 04:49:29;;;;;;;6.20;5.60;;;;;12.20;97485.00;;;;5077450;28;20208;-85
2023/09/08 04:52:18;;;;;;;9.77;5.63;;;;;12.60;97489.00;;;;5065666;28;20211;-84
2023/09/08 04:55:08;;;;;;;7.67;6.50;;;;;12.50;97491.00;;;;5068700;28;20804;-85
2023/09/08 04:57:57;;;;;;;11.63;6.73;;;;;12.10;97483.00;;;;5064861;28;20705;-85
2023/09/08 05:00:46;;;;;;;8.30;6.27;;;;;12.00;97487.00;;;;5069416;28;20224;-86
2023/09/08 05:03:35;;;;;;;9.67;7.00;;;;;12.10;97485.00;;;;5064913;28;20196;-85
2023/09/08 05:06:26;;;;;;;7.53;5.63;;;;;11.80;97492.00;;;;5070318;28;20203;-85
2023/09/08 05:09:15;;;;;;;8.73;6.07;;;;;12.00;97486.00;;;;5065294;28;20211;-85
2023/09/08 05:12:05;;;;;;;8.23;7.13;;;;;12.50;97493.00;;;;5067556;28;20219;-85
2023/09/08 05:14:59;;;;;;;6.60;5.63;;;;;12.80;97495.00;;;;5067454;28;20200;-85
2023/09/08 05:17:49;;;;;;;8.33;6.83;;;;;13.20;97497.00;;;;5069897;28;20204;-84
2023/09/08 05:20:38;;;;;;;8.90;7.17;;;;;12.70;97496.00;;;;5068112;28;20231;-84
2023/09/08 05:23:28;;;;;;;8.67;6.83;;;;;12.80;97495.00;;;;5079526;28;20219;-86
2023/09/08 05:26:17;;;;;;;9.80;6.63;;;;;13.10;97498.00;;;;5067431;28;20680;-85
2023/09/08 05:29:06;;;;;;;8.03;5.97;;;;;13.10;97489.00;;;;5071839;28;20204;-85
2023/09/08 05:31:55;;;;;;;10.37;6.53;;;;;13.00;97493.00;;;;5059744;28;20224;-86
2023/09/08 05:34:44;;;;;;;8.43;6.10;;;;;13.10;97491.00;;;;5066307;28;20200;-85
2023/09/08 05:37:33;;;;;;;7.73;6.17;;;;;13.30;97496.00;;;;5061971;28;20204;-85
2023/09/08 05:40:24;;;;;;;9.20;6.10;;;;;13.20;97495.00;;;;5065417;28;20235;-86
2023/09/08 05:43:13;;;;;;;8.20;5.90;;;;;13.10;97510.00;;;;5069235;28;20204;-86
2023/09/08 05:46:03;;;;;;;6.83;5.37;;;;;13.00;97502.00;;;;5061907;28;20274;-86
2023/09/08 05:48:52;;;;;;;7.73;6.33;;;;;13.00;97497.00;;;;5065201;28;20208;-85
2023/09/08 05:51:42;;;;;;;6.70;5.87;;;;;13.60;97502.00;;;;5066522;28;20614;-85
2023/09/08 05:54:30;;;;;;;7.27;6.57;;;;;13.70;97502.00;;;;5060684;28;20205;-85
2023/09/08 05:57:21;;;;;;;10.97;6.83;;;;;13.90;97498.00;;;;5063018;28;20204;-84
2023/09/08 06:00:12;;;;;;;9.83;7.20;;;;;14.10;97495.00;;;;5064911;28;20219;-84
2023/09/08 06:03:01;;;;;;;10.27;7.03;;;;;14.20;97503.00;;;;5061464;28;20226;-84
2023/09/08 06:05:50;;;;;;;8.10;6.93;;;;;14.40;97495.00;;;;5066400;28;20211;-85
2023/09/08 06:08:39;;;;;;;9.87;7.90;;;;;14.60;97501.00;;;;5066427;28;20690;-85
2023/09/08 06:11:28;;;;;;;12.07;8.17;;;;;14.80;97504.00;;;;5049134;28;20220;-85
2023/09/08 06:14:19;;;;;;;11.47;8.03;;;;;14.90;97501.00;;;;5050601;28;20425;-85
2023/09/08 06:17:08;;;;;;;11.73;8.10;;;;;14.80;97514.00;;;;5053259;28;20272;-85
2023/09/08 06:19:57;;;;;;;14.77;8.33;;;;;15.10;97502.00;;;;5056887;28;20208;-85
2023/09/08 06:22:46;;;;;;;11.17;8.13;;;;;15.40;97503.00;;;;5063457;28;20720;-86
2023/09/08 06:25:35;;;;;;;9.30;7.17;;;;;15.50;97499.00;;;;5061656;28;20222;-85
2023/09/08 06:28:24;;;;;;;14.07;8.70;;;;;15.60;97491.00;;;;5063746;28;20200;-85
2023/09/08 06:31:15;;;;;;;12.73;7.70;;;;;15.90;97502.00;;;;5059021;28;20247;-86
2023/09/08 06:34:04;;;;;;;16.00;8.53;;;;;15.90;97501.00;;;;5059985;28;20212;-85
2023/09/08 06:36:53;;;;;;;11.97;7.93;;;;;16.10;97498.00;;;;5057097;28;20216;-85
2023/09/08 06:39:42;;;;;;;12.43;8.10;;;;;16.10;97497.00;;;;5058481;28;20211;-85
2023/09/08 06:42:31;;;;;;;12.77;9.00;;;;;16.00;97497.00;;;;5055258;28;20228;-86
2023/09/08 06:45:20;;;;;;;12.73;8.80;;;;;16.40;97498.00;;;;5052522;28;20685;-85
2023/09/08 06:48:10;;;;;;;23.23;9.27;;;;;17.00;97495.00;;;;5060224;28;20196;-85
2023/09/08 06:50:59;;;;;;;13.87;8.13;;;;;17.50;97497.00;;;;5064185;28;20224;-86
2023/09/08 06:53:56;;;;;;;16.60;9.27;;;;;17.90;97496.00;;;;5062957;28;20224;-86
2023/09/08 06:56:45;;;;;;;11.20;8.23;;;;;18.10;97511.00;;;;5059416;28;20217;-86
2023/09/08 06:59:34;;;;;;;11.30;8.47;;;;;18.20;97503.00;;;;5056864;28;20200;-85
2023/09/08 07:02:23;;;;;;;13.17;7.27;;;;;18.50;97504.00;;;;5056437;28;20297;-88
2023/09/08 07:05:13;;;;;;;11.63;7.27;;;;;18.40;97498.00;;;;5060953;28;20200;-87
2023/09/08 07:08:03;;;;;;;11.70;8.27;;;;;18.70;97509.00;;;;5066199;28;20220;-86
2023/09/08 07:10:54;;;;;;;14.33;8.17;;;;;18.80;97500.00;;;;5059615;28;20236;-86
2023/09/08 07:13:43;;;;;;;10.53;6.80;;;;;18.90;97500.00;;;;5058174;28;20551;-87
2023/09/08 07:16:32;;;;;;;11.40;7.93;;;;;19.30;97502.00;;;;5061594;28;20216;-87
2023/09/08 07:19:21;;;;;;;14.57;7.77;;;;;19.30;97499.00;;;;5069671;28;20200;-86
2023/09/08 07:22:11;;;;;;;11.33;7.17;;;;;19.40;97503.00;;;;5065878;28;20584;-86
2023/09/08 07:25:00;;;;;;;13.77;7.30;;;;;19.60;97509.00;;;;5061793;28;20200;-86
2023/09/08 07:27:52;;;;;;;15.57;8.20;;;;;19.80;97510.00;;;;5067278;28;20208;-86
2023/09/08 07:30:41;;;;;;;10.07;7.17;;;;;19.70;97502.00;;;;5069594;28;20262;-86
2023/09/08 07:33:30;;;;;;;13.40;7.10;;;;;20.00;97509.00;;;;5070488;28;20572;-86
2023/09/08 07:36:19;;;;;;;10.90;6.03;;;;;20.20;97502.00;;;;5065177;28;20192;-87
2023/09/08 07:39:10;;;;;;;6.83;5.87;;;;;20.50;97518.00;;;;5064798;28;20214;-88
2023/09/08 07:41:59;;;;;;;11.27;6.53;;;;;20.60;97500.00;;;;5067785;28;20236;-87
2023/09/08 07:44:49;;;;;;;11.73;7.03;;;;;20.90;97500.00;;;;5072526;28;20211;-87
2023/09/08 07:47:39;;;;;;;9.03;7.67;;;;;20.80;97499.00;;;;5069607;28;20204;-86
2023/09/08 07:50:31;;;;;;;10.73;6.13;;;;;20.80;97495.00;;;;5068589;28;20710;-86
2023/09/08 07:53:20;;;;;;;11.47;7.13;;;;;21.20;97493.00;;;;5069037;28;20215;-87
2023/09/08 07:56:10;;;;;;;7.83;6.07;;;;;21.30;97500.00;;;;5066879;28;20214;-87
2023/09/08 07:58:59;;;;;;;9.70;6.07;;;;;21.60;97490.00;;;;5076578;28;20653;-87
2023/09/08 08:01:49;;;;;;;10.43;6.70;;;;;21.50;97492.00;;;;5067270;28;20504;-87
2023/09/08 08:04:38;;;;;;;13.33;7.17;;;;;21.90;97482.00;;;;5067436;28;20204;-87
2023/09/08 08:07:27;;;;;;;10.33;6.60;;;;;22.20;97486.00;;;;5066725;28;20230;-87
2023/09/08 08:10:16;;;;;;;9.20;6.37;;;;;22.30;97482.00;;;;5073722;28;20199;-87
2023/09/08 08:13:06;;;;;;;11.20;6.83;;;;;22.50;97480.00;;;;5071328;28;20200;-87
2023/09/08 08:15:55;;;;;;;25.93;8.07;;;;;22.50;97478.00;;;;5065610;28;20222;-87
2023/09/08 08:18:44;;;;;;;9.53;6.40;;;;;22.80;97478.00;;;;5068461;28;20546;-88
2023/09/08 08:21:33;;;;;;;16.53;7.20;;;;;23.10;97475.00;;;;5067890;28;20672;-88
2023/09/08 08:24:22;;;;;;;11.90;6.70;;;;;23.20;97472.00;;;;5064745;28;20200;-88
2023/09/08 08:27:11;;;;;;;9.93;6.93;;;;;23.20;97476.00;;;;5064699;28;20559;-88
2023/09/08 08:30:03;;;;;;;8.47;6.83;;;;;23.40;97469.00;;;;5077545;28;20203;-86
2023/09/08 08:32:53;;;;;;;6.53;5.47;;;;;23.60;97475.00;;;;5067888;28;20200;-88
2023/09/08 08:35:42;;;;;;;10.23;6.20;;;;;23.80;97469.00;;;;5068159;28;20236;-88
2023/09/08 08:38:31;;;;;;;8.90;6.40;;;;;23.90;97469.00;;;;5067717;28;20211;-88
2023/09/08 08:41:20;;;;;;;10.90;6.43;;;;;24.10;97470.00;;;;5070847;28;20234;-88
2023/09/08 08:44:09;;;;;;;14.17;6.03;;;;;24.30;97465.00;;;;5068327;28;20253;-88
2023/09/08 08:47:01;;;;;;;8.60;5.40;;;;;24.50;97460.00;;;;5068931;28;20227;-87
2023/09/08 08:49:50;;;;;;;10.83;5.57;;;;;24.70;97454.00;;;;5064733;28;20207;-88
2023/09/08 08:52:40;;;;;;;9.23;5.93;;;;;24.90;97461.00;;;;5071426;28;20487;-88
2023/09/08 08:55:31;;;;;;;8.80;6.00;;;;;25.10;97459.00;;;;5074782;28;20204;-87
2023/09/08 08:58:24;;;;;;;7.80;6.20;;;;;25.30;97467.00;;;;5073586;28;20669;-88
2023/09/08 09:01:14;;;;;;;9.03;5.37;;;;;25.40;97456.00;;;;5064159;28;20223;-88
2023/09/08 09:04:07;;;;;;;11.23;5.83;;;;;25.60;97458.00;;;;5068906;28;20226;-88
2023/09/08 09:06:57;;;;;;;7.97;5.37;;;;;25.80;97455.00;;;;5065487;28;20207;-88
2023/09/08 09:09:46;;;;;;;8.10;5.13;;;;;26.10;97459.00;;;;5068561;28;20195;-88
2023/09/08 09:12:37;;;;;;;6.47;4.77;;;;;26.30;97459.00;;;;5066976;28;20214;-88
2023/09/08 09:15:30;;;;;;;5.37;4.33;;;;;26.40;97460.00;;;;5070324;28;20222;-89
2023/09/08 09:18:19;;;;;;;5.60;4.73;;;;;26.30;97460.00;;;;5068314;28;20204;-88
2023/09/08 09:21:10;;;;;;;7.07;4.40;;;;;26.50;97457.00;;;;5064564;28;20230;-88
2023/09/08 09:23:59;;;;;;;8.43;5.63;;;;;26.70;97455.00;;;;5064363;28;20227;-87
2023/09/08 09:26:52;;;;;;;8.57;4.57;;;;;26.30;97462.00;;;;5068274;28;20201;-88
2023/09/08 09:29:47;;;;;;;7.97;5.43;;;;;26.90;97461.00;;;;5069062;28;20204;-88
2023/09/08 09:32:36;;;;;;;7.23;5.07;;;;;27.00;97454.00;;;;5074730;28;20589;-88
2023/09/08 09:35:41;;;;;;;6.27;4.40;;;;;27.10;97461.00;;;;5068742;28;20237;-88
2023/09/08 09:38:31;;;;;;;5.73;4.00;;;;;27.30;97444.00;;;;5065955;28;20217;-88
2023/09/08 09:41:21;;;;;;;6.10;3.97;;;;;27.40;97441.00;;;;5069244;28;20228;-87
2023/09/08 09:44:10;;;;;;;7.03;3.87;;;;;27.70;97448.00;;;;5067844;28;20243;-88
2023/09/08 09:46:59;;;;;;;6.63;4.17;;;;;28.00;97445.00;;;;5068265;28;20206;-87
2023/09/08 09:49:49;;;;;;;4.30;3.90;;;;;27.90;97453.00;;;;5068581;28;20212;-86
2023/09/08 09:52:41;;;;;;;6.67;4.70;;;;;27.50;97445.00;;;;5067420;28;20272;-88
2023/09/08 09:55:32;;;;;;;5.83;4.70;;;;;28.30;97442.00;;;;5068355;28;20209;-88
2023/09/08 09:58:22;;;;;;;11.17;4.13;;;;;28.30;97444.00;;;;5068750;28;20223;-88
2023/09/08 10:01:12;;;;;;;5.33;4.30;;;;;28.30;97439.00;;;;5067679;28;20237;-88
2023/09/08 10:04:03;;;;;;;8.23;4.87;;;;;28.80;97437.00;;;;5070812;28;20217;-88
2023/09/08 10:06:53;;;;;;;5.57;4.80;;;;;28.70;97437.00;;;;5068889;28;20690;-88
2023/09/08 10:09:42;;;;;;;6.63;4.57;;;;;29.30;97436.00;;;;5072129;28;20200;-88
2023/09/08 10:12:32;;;;;;;6.40;4.60;;;;;29.00;97430.00;;;;5070054;28;20216;-88
2023/09/08 10:15:23;;;;;;;4.87;3.60;;;;;29.40;97429.00;;;;5068823;28;20722;-89
2023/09/08 10:18:15;;;;;;;6.43;5.10;;;;;29.80;97427.00;;;;5066956;28;20238;-87
2023/09/08 10:21:05;;;;;;;7.87;4.40;;;;;29.30;97431.00;;;;5073769;28;20218;-87
2023/09/08 10:23:58;;;;;;;5.53;4.10;;;;;29.50;97421.00;;;;5064432;28;20224;-87
2023/09/08 10:26:56;;;;;;;10.33;5.23;;;;;29.60;97421.00;;;;5069919;28;20202;-88
2023/09/08 10:29:47;;;;;;;6.57;4.37;;;;;29.90;97413.00;;;;5071987;28;20209;-88
2023/09/08 10:32:37;;;;;;;5.20;4.67;;;;;30.00;97407.00;;;;5072543;28;20206;-87
2023/09/08 10:35:26;;;;;;;10.33;4.30;;;;;30.10;97403.00;;;;5069049;28;20580;-87
2023/09/08 10:38:26;;;;;;;6.20;4.63;;;;;30.40;97404.00;;;;5070672;28;20204;-87
2023/09/08 10:41:31;;;;;;;6.97;4.73;;;;;30.70;97406.00;;;;5068692;28;20225;-90
2023/09/08 10:44:20;;;;;;;6.67;4.03;;;;;31.00;97405.00;;;;5069589;28;20234;-89
2023/09/08 10:47:11;;;;;;;4.90;4.30;;;;;31.00;97412.00;;;;5072911;28;20205;-89
2023/09/08 10:50:00;;;;;;;7.77;4.93;;;;;30.40;97399.00;;;;5072443;28;20229;-87
2023/09/08 10:53:10;;;;;;;7.33;4.63;;;;;29.90;97395.00;;;;5070855;28;20234;-87
2023/09/08 10:55:59;;;;;;;7.50;4.60;;;;;30.60;97397.00;;;;5066437;28;20201;-89
2023/09/08 10:58:55;;;;;;;6.20;4.03;;;;;28.90;97392.00;;;;5069187;28;20587;-87
2023/09/08 11:01:44;;;;;;;5.00;4.23;;;;;30.60;97382.00;;;;5065950;28;20707;-88
2023/09/08 11:04:37;;;;;;;7.53;3.83;;;;;31.30;97380.00;;;;5068931;28;20225;-88
2023/09/08 11:07:26;;;;;;;7.90;4.33;;;;;31.40;97376.00;;;;5067299;28;20198;-88
2023/09/08 11:10:15;;;;;;;5.17;3.80;;;;;31.80;97373.00;;;;5068908;28;20203;-88
2023/09/08 11:13:06;;;;;;;4.13;3.73;;;;;32.70;97370.00;;;;5070206;28;20278;-89
2023/09/08 11:15:55;;;;;;;5.88;4.35;;;;;31.90;97379.00;;;;5068458;28;20567;-89
2023/09/08 11:18:44;;;;;;;5.50;4.30;;;;;32.20;97376.00;;;;5071148;28;20196;-90
2023/09/08 11:21:35;;;;;;;6.45;4.47;;;;;33.00;97374.00;;;;5069302;28;20684;-89
2023/09/08 11:24:25;;;;;;;5.25;4.22;;;;;33.60;97377.00;;;;5071380;28;20226;-89
2023/09/08 11:27:14;;;;;;;8.45;4.72;;;;;33.70;97376.00;;;;5068796;28;20205;-90
2023/09/08 11:30:04;;;;;;;7.05;3.85;;;;;34.10;97366.00;;;;5070186;28;20202;-89
2023/09/08 11:32:54;;;;;;;4.65;4.25;;;;;34.50;97376.00;;;;5070417;28;20205;-89
2023/09/08 11:35:43;;;;;;;4.78;4.03;;;;;34.70;97379.00;;;;5073483;28;20196;-89
2023/09/08 11:38:34;;;;;;;5.65;4.35;;;;;34.50;97375.00;;;;5068692;28;20211;-89
2023/09/08 11:41:23;;;;;;;4.78;3.63;;;;;34.40;97367.00;;;;5067867;28;20234;-90
2023/09/08 11:44:17;;;;;;;5.53;4.07;;;;;35.00;97372.00;;;;5067866;28;20237;-90
2023/09/08 11:47:09;;;;;;;4.35;3.55;;;;;34.90;97375.00;;;;5075823;22;20318;-84
2023/09/08 11:49:59;;;;;;;6.05;3.80;;;;;35.10;97369.00;;;;5054194;28;20463;-85
2023/09/08 11:52:49;;;;;;;6.38;3.42;;;;;34.80;97377.00;;;;5053788;28;20204;-84
2023/09/08 11:55:39;;;;;;;8.18;4.72;;;32.40;67.50;35.60;97373.00;;;;5053727;28;20200;-84
2023/09/08 11:58:28;;;;;;;5.95;3.92;;;32.30;68.50;36.20;97369.00;;;;5052334;28;20291;-84
2023/09/08 12:01:17;;;;;;;6.53;3.20;;;32.60;68.60;35.60;97362.00;;;;5054895;28;20205;-85
2023/09/08 12:04:06;;;;;;;3.88;3.47;;;32.80;65.40;35.00;97362.00;;;;5053493;28;20220;-84
2023/09/08 12:06:56;;;;;;;4.90;3.63;;;32.70;63.10;35.00;97354.00;;;;5055063;28;20213;-84
2023/09/08 12:09:46;;;;;;;4.25;3.63;;;32.70;63.60;35.80;97357.00;;;;5056377;28;20189;-84
2023/09/08 12:12:43;;;;;;;4.65;3.58;;;32.80;63.70;36.60;97349.00;;;;5053016;28;20197;-83
2023/09/08 12:15:34;;;;;;;5.65;4.93;;;33.00;65.10;36.60;97348.00;;;;5062724;28;20209;-82
2023/09/08 12:18:39;;;;;;;3.78;3.40;;;33.20;62.70;35.90;97351.00;;;;5068230;28;20224;-82
2023/09/08 12:21:28;;;;;;;4.03;3.72;;;33.30;62.20;35.50;97346.00;;;;5067267;28;20231;-83
2023/09/08 12:24:17;;;;;;;4.90;4.05;;;33.30;59.50;35.10;97345.00;;;;5053440;28;20228;-82
2023/09/08 12:27:06;;;;;;;5.00;4.32;;;33.10;58.10;33.10;97355.00;;;;5051779;28;20204;-82
2023/09/08 12:29:58;;;;;;;4.35;3.95;;;32.60;58.70;33.50;97346.00;;;;5052454;28;20204;-83
2023/09/08 12:32:49;;;;;;;12.82;3.78;;;32.00;59.10;33.70;97334.00;;;;5052397;28;20208;-81
2023/09/08 12:35:38;;;;;;;5.53;4.05;;;31.70;59.00;32.70;97331.00;;;;5052500;28;20196;-82
2023/09/08 12:38:33;;;;;;;4.20;3.83;;;31.20;60.30;32.70;97323.00;;;;5045740;28;20209;-82
2023/09/08 12:41:22;;;;;;;4.43;3.97;;;31.00;61.10;34.50;97327.00;;;;5048263;28;20217;-83
2023/09/08 12:44:10;;;;;;;6.45;4.10;;;31.20;60.80;34.50;97324.00;;;;5048305;28;20200;-83
2023/09/08 12:47:01;;;;;;;4.20;3.80;;;31.50;60.50;32.70;97325.00;;;;5046420;28;20208;-82
2023/09/08 12:49:49;;;;;;;4.25;3.83;;;31.50;58.50;33.80;97322.00;;;;5046142;28;20200;-84
2023/09/08 12:52:38;;;;;;;4.68;4.18;;;31.40;59.30;32.90;97316.00;;;;5044952;28;20231;-85
2023/09/08 12:55:27;;;;;;;5.43;3.85;;;31.10;59.50;35.40;97318.00;;;;5046024;28;20196;-84
2023/09/08 12:58:16;;;;;;;5.93;3.40;;;31.40;62.00;36.30;97311.00;;;;5050794;28;20227;-86
2023/09/08 13:01:06;;;;;;;4.57;4.03;;;32.00;62.10;36.10;97313.00;;;;5056106;28;20192;-82
2023/09/08 13:03:57;;;;;;;5.45;3.90;;;32.70;60.10;36.70;97313.00;;;;5051517;28;20596;-82
2023/09/08 13:06:45;;;;;;;6.10;3.65;;;33.10;59.50;37.00;97306.00;;;;5051638;28;20211;-83
2023/09/08 13:09:34;;;;;;;3.60;3.30;;;33.50;59.60;37.20;97305.00;;;;5045172;28;20227;-83
2023/09/08 13:12:23;;;;;;;5.68;4.03;;;34.10;59.20;33.60;97306.00;;;;5047690;28;20205;-83
2023/09/08 13:15:12;;;;;;;4.53;4.10;;;33.10;57.60;36.00;97303.00;;;;5040722;28;20208;-83
2023/09/08 13:18:00;;;;;;;4.13;3.83;;;33.10;59.90;36.50;97298.00;;;;5045019;28;20220;-84
2023/09/08 13:20:50;;;;;;;3.75;3.45;;;33.20;59.90;37.30;97296.00;;;;5042851;28;20310;-83
2023/09/08 13:23:39;;;;;;;4.78;4.20;;;33.50;59.80;37.80;97298.00;;;;5049448;28;20220;-84
2023/09/08 13:26:28;;;;;;;4.07;3.67;;;33.90;58.30;38.00;97297.00;;;;5048814;28;20236;-84
2023/09/08 13:29:18;;;;;;;4.72;3.80;;;34.40;58.40;36.60;97296.00;;;;5051851;28;20232;-84
2023/09/08 13:32:07;;;;;;;4.00;3.40;;;34.60;56.50;37.00;97302.00;;;;5054110;28;20196;-83
2023/09/08 13:34:56;;;;;;;5.15;3.90;;;34.60;56.70;38.40;97294.00;;;;5057822;28;20205;-84
2023/09/08 13:37:46;;;;;;;6.43;3.67;;;34.70;56.60;38.20;97287.00;;;;5057868;28;20212;-83
2023/09/08 13:40:35;;;;;;;4.13;3.78;;;34.90;55.90;38.20;97288.00;;;;5058453;28;20196;-84
2023/09/08 13:43:24;;;;;;;4.78;3.45;;;35.10;55.10;35.60;97290.00;;;;5065000;28;20228;-82
2023/09/08 13:46:12;;;;;;;6.70;3.30;;;34.70;53.40;37.30;97284.00;;;;5055518;28;20225;-84
2023/09/08 13:49:01;;;;;;;4.40;3.83;;;34.50;54.80;37.70;97282.00;;;;5058027;28;20219;-84
2023/09/08 13:51:53;;;;;;;4.90;4.00;;;34.60;55.60;37.90;97282.00;;;;5061416;28;20199;-84